Time;durP1;ratioP1;P1;durP2;ratioP2;P2;SDS_P1;SDS_P2;PMS_P1;PMS_P2;Temp;Humidity;BMP_temperature;BMP_pressure;BME280_temperature;BME280_humidity;BME280_pressure;Samples;Min_cycle;Max_cycle;Signal;HPM_P1;HPM_P2
2021/03/12 00:00:30;;;;;;;3.57;1.00;;;5.60;99.90;;;;;;4903954;29;20190;-92
2021/03/12 00:02:55;;;;;;;4.47;1.20;;;5.50;99.90;;;;;;4904712;29;20681;-93
2021/03/12 00:05:21;;;;;;;2.63;1.00;;;5.40;99.90;;;;;;4904709;29;20261;-92
2021/03/12 00:07:47;;;;;;;2.83;1.03;;;5.50;99.90;;;;;;4921349;29;20196;-92
2021/03/12 00:10:19;;;;;;;3.37;1.00;;;5.40;99.90;;;;;;4904563;29;20193;-93
2021/03/12 00:12:45;;;;;;;5.17;1.00;;;5.40;99.90;;;;;;4904794;29;20210;-94
2021/03/12 00:15:20;;;;;;;2.40;0.87;;;5.40;99.90;;;;;;4921135;29;20210;-92
2021/03/12 00:17:47;;;;;;;3.87;1.07;;;5.40;99.90;;;;;;4904423;29;20652;-93
2021/03/12 00:20:15;;;;;;;3.60;1.00;;;5.40;99.90;;;;;;4903679;29;20182;-92
2021/03/12 00:22:41;;;;;;;3.93;1.00;;;5.40;99.90;;;;;;4904208;29;20693;-92
2021/03/12 00:25:18;;;;;;;2.10;0.60;;;5.40;99.90;;;;;;4921166;29;20254;-94
2021/03/12 00:27:44;;;;;;;4.60;1.30;;;5.40;99.90;;;;;;4921202;29;20194;-93
2021/03/12 00:30:11;;;;;;;4.70;1.00;;;5.40;99.90;;;;;;4904346;29;20581;-93
2021/03/12 00:32:38;;;;;;;3.20;0.90;;;5.40;99.90;;;;;;4904301;29;20219;-94
2021/03/12 00:35:06;;;;;;;2.20;0.87;;;5.40;99.90;;;;;;4904658;29;20630;-96
2021/03/12 00:37:32;;;;;;;4.80;1.00;;;5.40;99.90;;;;;;4904731;29;20226;-96
2021/03/12 00:39:59;;;;;;;4.23;1.07;;;5.40;99.90;;;;;;4904138;29;20201;-91
2021/03/12 00:42:24;;;;;;;2.57;0.90;;;5.40;99.90;;;;;;4903257;29;20290;-92
2021/03/12 00:44:50;;;;;;;2.37;0.73;;;5.40;99.90;;;;;;4902879;29;20273;-91
2021/03/12 00:47:16;;;;;;;4.33;1.17;;;5.30;99.90;;;;;;4920475;29;20662;-91
2021/03/12 00:49:42;;;;;;;2.70;0.80;;;5.20;99.90;;;;;;4903780;29;20281;-91
2021/03/12 00:52:08;;;;;;;2.27;0.77;;;5.20;99.90;;;;;;4919667;29;20190;-90
2021/03/12 00:54:33;;;;;;;1.87;0.60;;;5.20;99.90;;;;;;4904791;29;20218;-92
2021/03/12 00:56:59;;;;;;;1.17;0.67;;;5.10;99.90;;;;;;4920560;29;20221;-93
2021/03/12 00:59:25;;;;;;;1.80;0.60;;;5.10;99.90;;;;;;4903524;29;20190;-92
2021/03/12 01:01:50;;;;;;;1.07;0.50;;;5.10;99.90;;;;;;4903512;29;20527;-93
2021/03/12 01:04:16;;;;;;;5.93;0.83;;;5.10;99.90;;;;;;4903577;29;20190;-94
2021/03/12 01:06:42;;;;;;;1.43;0.67;;;5.10;99.90;;;;;;4903603;29;20199;-92
2021/03/12 01:09:09;;;;;;;4.60;0.90;;;5.10;99.90;;;;;;4920693;29;20182;-94
2021/03/12 01:11:34;;;;;;;1.53;0.67;;;5.10;99.90;;;;;;4920531;29;20219;-96
2021/03/12 01:14:00;;;;;;;2.27;0.70;;;5.10;99.90;;;;;;4903921;29;20237;-96
2021/03/12 01:16:26;;;;;;;2.20;0.87;;;5.10;99.90;;;;;;4903614;29;20244;-96
2021/03/12 01:18:52;;;;;;;5.67;0.67;;;5.00;99.90;;;;;;4903954;29;20201;-95
2021/03/12 01:21:18;;;;;;;1.23;0.50;;;5.00;99.90;;;;;;4888169;29;20205;-94
2021/03/12 01:23:44;;;;;;;3.37;0.90;;;5.00;99.90;;;;;;4903440;29;20221;-94
2021/03/12 01:26:09;;;;;;;4.17;0.80;;;5.00;99.90;;;;;;4903882;29;20245;-95
2021/03/12 01:28:35;;;;;;;2.53;0.90;;;5.00;99.90;;;;;;4903800;29;20190;-93
2021/03/12 01:31:01;;;;;;;2.50;0.70;;;5.00;99.90;;;;;;4903780;29;20182;-95
2021/03/12 01:33:30;;;;;;;3.97;1.00;;;4.90;99.90;;;;;;4903838;29;20575;-94
2021/03/12 01:35:55;;;;;;;4.53;0.80;;;5.00;99.90;;;;;;4903387;29;20214;-94
2021/03/12 01:38:21;;;;;;;2.87;0.77;;;5.00;99.90;;;;;;4903517;29;20523;-94
2021/03/12 01:40:49;;;;;;;2.63;0.70;;;5.00;99.90;;;;;;4897790;29;20191;-93
2021/03/12 01:43:16;;;;;;;2.20;0.87;;;4.90;99.90;;;;;;4885355;29;20184;-95
2021/03/12 01:45:47;;;;;;;3.13;1.03;;;5.00;99.90;;;;;;4885853;29;20179;-94
2021/03/12 01:48:16;;;;;;;1.73;0.67;;;4.90;99.90;;;;;;4885128;29;20501;-95
2021/03/12 01:50:45;;;;;;;2.87;0.70;;;4.90;99.90;;;;;;4889009;29;20233;-93
2021/03/12 01:53:15;;;;;;;1.47;0.80;;;4.90;99.90;;;;;;4904859;29;20522;-93
2021/03/12 01:55:42;;;;;;;3.20;0.83;;;4.90;99.90;;;;;;4904474;29;20192;-96
2021/03/12 01:58:08;;;;;;;2.67;0.90;;;4.90;99.90;;;;;;4904717;29;20194;-94
2021/03/12 02:00:35;;;;;;;5.00;1.00;;;4.80;99.90;;;;;;4902574;29;20514;-96
2021/03/12 02:03:03;;;;;;;5.00;1.00;;;4.90;99.90;;;;;;4899704;29;20183;-96
2021/03/12 02:05:28;;;;;;;2.43;0.90;;;4.90;99.90;;;;;;4916185;29;20505;-96
2021/03/12 02:07:55;;;;;;;4.90;1.10;;;4.90;99.90;;;;;;4921043;29;20194;-94
2021/03/12 02:10:31;;;;;;;3.90;1.13;;;4.80;99.90;;;;;;4920362;29;20194;-94
2021/03/12 02:13:20;;;;;;;2.67;1.40;;;4.90;99.90;;;;;;4905540;29;20187;-94
2021/03/12 02:15:52;;;;;;;5.03;1.53;;;4.90;99.90;;;;;;4904568;29;20210;-95
2021/03/12 02:18:23;;;;;;;5.60;1.57;;;4.90;99.90;;;;;;4903809;29;20269;-93
2021/03/12 02:21:12;;;;;;;3.70;1.60;;;4.90;99.90;;;;;;4902643;29;20190;-94
2021/03/12 02:24:05;;;;;;;7.00;2.40;;;5.00;99.90;;;;;;4919199;29;20173;-94
2021/03/12 02:26:41;;;;;;;5.53;2.20;;;5.10;99.90;;;;;;4919100;29;20676;-94
2021/03/12 02:29:12;;;;;;;8.60;2.40;;;5.10;99.90;;;;;;4903690;29;20307;-95
2021/03/12 02:31:40;;;;;;;6.70;2.07;;;5.10;99.90;;;;;;4887568;29;20618;-93
2021/03/12 02:34:12;;;;;;;7.73;2.40;;;5.20;99.90;;;;;;4902516;29;20179;-96
2021/03/12 02:36:41;;;;;;;7.33;2.70;;;5.20;99.90;;;;;;4886841;29;20561;-96
2021/03/12 02:39:11;;;;;;;5.27;2.50;;;5.20;99.90;;;;;;4902136;29;20618;-96
2021/03/12 02:41:39;;;;;;;6.37;2.30;;;5.20;99.90;;;;;;5282656;23;20333;-93
2021/03/12 02:44:08;;;;;;;6.73;2.90;;;5.20;99.90;;;;;;4920929;29;20245;-91
2021/03/12 02:46:34;;;;;;;8.17;2.80;;;5.30;99.90;;;;;;4936397;29;20236;-92
2021/03/12 02:49:01;;;;;;;9.10;2.83;;;5.30;99.90;;;;;;4938064;29;20306;-92
2021/03/12 02:51:27;;;;;;;7.50;2.60;;;5.40;99.90;;;;;;4936081;29;20209;-94
2021/03/12 02:53:53;;;;;;;7.17;3.07;;;5.30;99.90;;;;;;4921296;29;20190;-94
2021/03/12 02:56:21;;;;;;;8.83;3.43;;;5.30;99.90;;;;;;4920832;29;20221;-94
2021/03/12 02:58:48;;;;;;;5.27;2.80;;;5.40;99.90;;;;;;4919299;29;20193;-93
2021/03/12 03:01:16;;;;;;;7.80;4.43;;;5.30;99.90;;;;;;4921234;29;20236;-93
2021/03/12 03:03:45;;;;;;;15.07;4.33;;;5.40;99.90;;;;;;4920746;29;20233;-92
2021/03/12 03:06:11;;;;;;;13.13;4.30;;;5.50;99.90;;;;;;4920943;29;20209;-94
2021/03/12 03:08:41;;;;;;;11.77;4.53;;;5.50;99.90;;;;;;4921654;29;20189;-95
2021/03/12 03:11:08;;;;;;;11.67;4.70;;;5.50;99.90;;;;;;4925094;29;20192;-93
2021/03/12 03:13:35;;;;;;;10.23;4.53;;;5.50;99.90;;;;;;4924499;29;20200;-93
2021/03/12 03:16:05;;;;;;;12.43;5.30;;;5.40;99.90;;;;;;4924351;29;20244;-92
2021/03/12 03:18:33;;;;;;;10.60;4.50;;;5.30;99.90;;;;;;4924513;29;20181;-93
2021/03/12 03:21:01;;;;;;;14.13;4.97;;;5.30;99.90;;;;;;4941497;29;20189;-91
2021/03/12 03:23:27;;;;;;;7.63;3.80;;;5.30;99.90;;;;;;4924367;29;20245;-91
2021/03/12 03:25:56;;;;;;;13.17;4.53;;;5.40;99.90;;;;;;4924534;29;20188;-91
2021/03/12 03:28:23;;;;;;;10.17;4.73;;;5.40;99.90;;;;;;4924539;29;20527;-91
2021/03/12 03:30:50;;;;;;;9.20;3.77;;;5.30;99.90;;;;;;4924285;29;20563;-90
2021/03/12 03:33:16;;;;;;;11.97;4.23;;;5.30;99.90;;;;;;4924108;29;20194;-95
2021/03/12 03:35:42;;;;;;;8.60;4.13;;;5.30;99.90;;;;;;4924068;29;20182;-93
2021/03/12 03:38:08;;;;;;;10.17;4.03;;;5.30;99.90;;;;;;4922163;29;20190;-93
2021/03/12 03:40:33;;;;;;;10.47;4.30;;;5.30;99.90;;;;;;4924000;29;20571;-93
2021/03/12 03:43:02;;;;;;;11.77;4.43;;;5.30;99.90;;;;;;4939210;29;20280;-94
2021/03/12 03:45:30;;;;;;;9.47;4.50;;;5.30;99.90;;;;;;4924087;29;20185;-93
2021/03/12 03:47:59;;;;;;;8.03;4.33;;;5.30;99.90;;;;;;4923904;29;20664;-93
2021/03/12 03:50:27;;;;;;;10.43;4.30;;;5.30;99.90;;;;;;4922017;29;20249;-94
2021/03/12 03:52:54;;;;;;;5.90;3.70;;;5.30;99.90;;;;;;4924113;29;20280;-92
2021/03/12 03:55:24;;;;;;;8.30;4.00;;;5.20;99.90;;;;;;4923890;29;20181;-94
2021/03/12 03:57:51;;;;;;;7.07;3.20;;;5.20;99.90;;;;;;4923068;29;20217;-93
2021/03/12 04:00:18;;;;;;;7.07;3.70;;;5.20;99.90;;;;;;4923809;29;20178;-93
2021/03/12 04:02:46;;;;;;;13.83;4.20;;;5.10;99.90;;;;;;4924015;29;20253;-94
2021/03/12 04:05:14;;;;;;;9.67;4.10;;;5.10;99.90;;;;;;4922862;29;20230;-96
2021/03/12 04:07:41;;;;;;;11.97;4.40;;;5.10;99.90;;;;;;4924149;29;20644;-93
2021/03/12 04:10:09;;;;;;;7.80;4.20;;;5.00;99.90;;;;;;4923583;29;20193;-94
2021/03/12 04:12:36;;;;;;;11.27;4.20;;;5.10;99.90;;;;;;4923604;29;20186;-93
2021/03/12 04:15:06;;;;;;;11.33;4.67;;;5.10;99.90;;;;;;4923656;29;20193;-93
2021/03/12 04:17:33;;;;;;;9.97;4.67;;;5.10;99.90;;;;;;4923365;29;20217;-94
2021/03/12 04:20:00;;;;;;;9.23;4.53;;;5.10;99.90;;;;;;4923342;29;20208;-94
2021/03/12 04:22:26;;;;;;;8.20;3.90;;;5.20;99.90;;;;;;4922305;29;20337;-94
2021/03/12 04:24:52;;;;;;;11.80;5.33;;;5.20;99.90;;;;;;4922087;29;20624;-94
2021/03/12 04:27:19;;;;;;;9.10;4.53;;;5.20;99.90;;;;;;4921685;29;20181;-94
2021/03/12 04:29:45;;;;;;;16.50;5.07;;;5.20;99.90;;;;;;4922482;29;20275;-95
2021/03/12 04:32:11;;;;;;;12.17;4.43;;;5.10;99.90;;;;;;4922304;29;20700;-95
2021/03/12 04:34:38;;;;;;;10.13;4.43;;;5.10;99.90;;;;;;4921080;29;20188;-94
2021/03/12 04:37:04;;;;;;;11.20;4.10;;;5.10;99.90;;;;;;4922698;29;20276;-96
2021/03/12 04:39:31;;;;;;;9.57;4.83;;;5.10;99.90;;;;;;4923013;29;20185;-96
2021/03/12 04:41:58;;;;;;;10.20;4.87;;;5.20;99.90;;;;;;4926671;29;20273;-95
2021/03/12 04:44:24;;;;;;;5.87;3.70;;;5.20;99.90;;;;;;4923469;29;20221;-93
2021/03/12 04:46:50;;;;;;;5.00;3.33;;;5.10;99.90;;;;;;4922820;29;20561;-94
2021/03/12 04:49:16;;;;;;;3.57;2.57;;;5.10;99.90;;;;;;4921918;29;20195;-91
2021/03/12 04:51:45;;;;;;;4.57;2.53;;;5.00;99.90;;;;;;4925092;29;20190;-92
2021/03/12 04:54:14;;;;;;;3.47;1.93;;;4.80;99.90;;;;;;4939626;29;20186;-92
2021/03/12 04:56:41;;;;;;;4.80;2.50;;;4.50;99.90;;;;;;4922825;29;20677;-90
2021/03/12 04:59:07;;;;;;;5.40;2.40;;;4.20;99.90;;;;;;4922105;29;20182;-92
2021/03/12 05:01:37;;;;;;;7.00;2.90;;;4.10;99.90;;;;;;4921443;29;20182;-92
2021/03/12 05:04:07;;;;;;;4.10;2.60;;;4.10;99.90;;;;;;4922748;29;20233;-93
2021/03/12 05:06:33;;;;;;;6.83;3.50;;;4.10;99.90;;;;;;4922551;29;20620;-94
2021/03/12 05:08:59;;;;;;;5.97;4.10;;;4.20;99.90;;;;;;4922253;29;20220;-92
2021/03/12 05:11:25;;;;;;;8.63;4.60;;;4.30;99.90;;;;;;4923982;29;20187;-96
2021/03/12 05:13:52;;;;;;;10.17;4.90;;;4.50;99.90;;;;;;4922712;29;20634;-96
2021/03/12 05:16:18;;;;;;;9.23;4.47;;;4.60;99.90;;;;;;4924386;29;20260;-96
2021/03/12 05:18:44;;;;;;;6.67;3.73;;;4.70;99.90;;;;;;4925637;29;20527;-96
2021/03/12 05:21:10;;;;;;;7.43;4.30;;;4.80;99.90;;;;;;4924201;29;20183;-96
2021/03/12 05:23:35;;;;;;;7.30;4.60;;;4.80;99.90;;;;;;4921727;29;20675;-94
2021/03/12 05:26:01;;;;;;;9.20;4.93;;;4.70;99.90;;;;;;4939271;29;20297;-96
2021/03/12 05:28:27;;;;;;;9.93;5.20;;;4.70;99.90;;;;;;4922796;29;20212;-96
2021/03/12 05:30:53;;;;;;;9.93;5.47;;;4.70;99.90;;;;;;4922047;29;20288;-92
2021/03/12 05:33:19;;;;;;;8.47;5.10;;;4.70;99.90;;;;;;4920314;29;20679;-92
2021/03/12 05:35:45;;;;;;;13.80;5.50;;;4.70;99.90;;;;;;4938540;29;20613;-92
2021/03/12 05:38:10;;;;;;;12.67;6.07;;;4.80;99.90;;;;;;4941019;29;20185;-91
2021/03/12 05:40:36;;;;;;;10.70;5.60;;;4.80;99.90;;;;;;4923774;29;20266;-93
2021/03/12 05:43:03;;;;;;;13.47;6.43;;;4.90;99.90;;;;;;4922382;29;20178;-92
2021/03/12 05:45:29;;;;;;;11.40;5.50;;;4.90;99.90;;;;;;4921244;29;20557;-93
2021/03/12 05:47:55;;;;;;;9.17;5.50;;;4.90;99.90;;;;;;4921905;29;20216;-93
2021/03/12 05:50:22;;;;;;;11.97;6.10;;;4.90;99.90;;;;;;4920945;29;20192;-93
2021/03/12 05:52:48;;;;;;;9.73;5.97;;;4.90;99.90;;;;;;4920804;29;20217;-93
2021/03/12 05:55:17;;;;;;;11.53;5.77;;;4.90;99.90;;;;;;4922274;29;20617;-92
2021/03/12 05:57:45;;;;;;;12.53;5.03;;;4.90;99.90;;;;;;4922577;29;20254;-93
2021/03/12 06:00:12;;;;;;;11.47;5.63;;;4.90;99.90;;;;;;4920986;29;20613;-93
2021/03/12 06:02:38;;;;;;;11.60;5.20;;;4.90;99.90;;;;;;4922005;29;20275;-93
2021/03/12 06:05:08;;;;;;;10.23;5.27;;;4.90;99.90;;;;;;4922048;29;20572;-92
2021/03/12 06:07:35;;;;;;;10.73;4.90;;;4.90;99.90;;;;;;4921750;29;20215;-94
2021/03/12 06:10:01;;;;;;;8.43;4.90;;;5.00;99.90;;;;;;4921795;29;20185;-93
2021/03/12 06:12:27;;;;;;;9.27;5.00;;;4.90;99.90;;;;;;4922409;29;20193;-96
2021/03/12 06:14:54;;;;;;;9.77;4.87;;;5.00;99.90;;;;;;4921247;29;20193;-95
2021/03/12 06:17:34;;;;;;;5.63;4.53;;;5.00;99.90;;;;;;4921566;29;20217;-93
2021/03/12 06:20:02;;;;;;;11.23;4.40;;;5.00;99.90;;;;;;4920301;29;20181;-93
2021/03/12 06:22:29;;;;;;;11.73;4.53;;;5.00;99.90;;;;;;4920194;29;20174;-94
2021/03/12 06:25:11;;;;;;;7.07;4.17;;;5.00;99.90;;;;;;4921479;29;20193;-93
2021/03/12 06:27:37;;;;;;;8.50;4.77;;;5.00;99.90;;;;;;4920331;29;20245;-94
2021/03/12 06:30:03;;;;;;;7.17;4.50;;;5.00;99.90;;;;;;4918859;29;20333;-93
2021/03/12 06:32:53;;;;;;;7.50;3.80;;;5.10;99.90;;;;;;4921205;29;20197;-94
2021/03/12 06:35:25;;;;;;;9.33;4.10;;;5.00;99.90;;;;;;4920133;29;20178;-91
2021/03/12 06:37:52;;;;;;;6.30;3.50;;;5.00;99.90;;;;;;4939049;29;20224;-92
2021/03/12 06:40:21;;;;;;;6.03;3.80;;;5.00;99.90;;;;;;4940144;29;20187;-93
2021/03/12 06:43:06;;;;;;;9.63;4.23;;;5.00;99.90;;;;;;4926012;29;20239;-93
2021/03/12 06:45:41;;;;;;;5.60;3.60;;;5.10;99.90;;;;;;4910739;29;20166;-93
2021/03/12 06:48:17;;;;;;;8.47;4.10;;;5.20;99.90;;;;;;4914147;29;20195;-94
2021/03/12 06:51:02;;;;;;;7.50;3.83;;;5.20;99.90;;;;;;4913345;29;20515;-93
2021/03/12 06:53:39;;;;;;;10.10;4.00;;;5.20;99.90;;;;;;4918188;29;20186;-94
2021/03/12 06:56:13;;;;;;;7.77;4.40;;;5.20;99.90;;;;;;4912943;29;20206;-95
2021/03/12 06:58:39;;;;;;;8.23;4.17;;;5.10;99.90;;;;;;4915721;29;20205;-93
2021/03/12 07:01:21;;;;;;;7.13;3.37;;;5.10;99.90;;;;;;4920307;29;20193;-92
2021/03/12 07:03:47;;;;;;;7.57;3.50;;;5.20;99.90;;;;;;4921283;29;20182;-93
2021/03/12 07:06:16;;;;;;;7.10;3.00;;;5.30;99.90;;;;;;4921307;29;20178;-92
2021/03/12 07:08:45;;;;;;;7.10;3.30;;;5.30;99.90;;;;;;4930201;29;20189;-93
2021/03/12 07:11:26;;;;;;;12.20;4.27;;;5.30;99.90;;;;;;4939603;29;20184;-94
2021/03/12 07:13:57;;;;;;;8.07;3.10;;;5.30;99.90;;;;;;4938149;29;20244;-91
2021/03/12 07:16:24;;;;;;;7.17;3.20;;;5.30;99.90;;;;;;4940540;29;20213;-92
2021/03/12 07:18:51;;;;;;;9.93;3.50;;;5.40;99.90;;;;;;4939731;29;20248;-92
2021/03/12 07:21:23;;;;;;;7.27;3.13;;;5.40;99.90;;;;;;4918810;29;20189;-92
2021/03/12 07:23:51;;;;;;;7.20;3.10;;;5.40;99.90;;;;;;4911059;29;20303;-90
2021/03/12 07:26:19;;;;;;;6.70;3.27;;;5.50;99.90;;;;;;4909001;29;20613;-90
2021/03/12 07:28:46;;;;;;;10.40;3.30;;;5.50;99.90;;;;;;4915597;29;20189;-91
2021/03/12 07:31:14;;;;;;;10.10;2.97;;;5.50;99.90;;;;;;4908888;29;20193;-92
2021/03/12 07:33:50;;;;;;;10.93;3.30;;;5.50;99.90;;;;;;4901513;29;20657;-91
2021/03/12 07:36:19;;;;;;;12.40;3.70;;;5.60;99.90;;;;;;4901468;29;20675;-91
2021/03/12 07:38:46;;;;;;;8.20;3.30;;;5.70;99.90;;;;;;4901591;29;20262;-90
2021/03/12 07:41:12;;;;;;;11.33;3.60;;;5.70;99.90;;;;;;4901274;29;20230;-91
2021/03/12 07:43:39;;;;;;;8.27;3.57;;;5.80;99.90;;;;;;4901368;29;20674;-92
2021/03/12 07:46:08;;;;;;;9.30;3.60;;;5.90;99.90;;;;;;4901538;29;20175;-91
2021/03/12 07:48:35;;;;;;;7.63;3.70;;;5.90;99.90;;;;;;4913341;29;20185;-92
2021/03/12 07:51:12;;;;;;;9.00;3.43;;;5.90;99.90;;;;;;4919577;29;20205;-91
2021/03/12 07:53:50;;;;;;;7.47;3.67;;;5.80;99.90;;;;;;4920301;29;20212;-92
2021/03/12 07:56:18;;;;;;;8.67;3.97;;;5.70;99.90;;;;;;4923262;29;20202;-90
2021/03/12 07:58:54;;;;;;;8.90;3.63;;;5.70;99.90;;;;;;4912747;29;20613;-93
2021/03/12 08:01:21;;;;;;;6.30;3.77;;;5.80;99.90;;;;;;4912547;29;20181;-91
2021/03/12 08:03:49;;;;;;;9.37;4.40;;;5.80;99.90;;;;;;4917526;29;20186;-92
2021/03/12 08:06:21;;;;;;;6.83;4.07;;;5.80;99.90;;;;;;4918737;29;20182;-92
2021/03/12 08:08:48;;;;;;;9.67;4.20;;;5.80;99.90;;;;;;4908426;29;20194;-92
2021/03/12 08:11:34;;;;;;;7.83;3.73;;;5.80;99.90;;;;;;4904614;29;20245;-93
2021/03/12 08:14:09;;;;;;;12.33;4.73;;;5.90;99.90;;;;;;4904173;29;20181;-92
2021/03/12 08:16:35;;;;;;;10.07;4.57;;;5.90;99.90;;;;;;4904298;29;20640;-91
2021/03/12 08:19:31;;;;;;;8.90;4.30;;;6.00;99.90;;;;;;4911397;29;20186;-93
2021/03/12 08:22:01;;;;;;;8.50;4.50;;;6.20;99.90;;;;;;4923468;29;20178;-95
2021/03/12 08:24:48;;;;;;;11.60;4.07;;;6.20;99.90;;;;;;4923064;29;20209;-93
2021/03/12 08:27:41;;;;;;;15.03;4.53;;;6.30;99.90;;;;;;4923216;29;20193;-92
2021/03/12 08:30:27;;;;;;;10.73;4.13;;;6.30;99.90;;;;;;4923140;29;20200;-92
2021/03/12 08:32:57;;;;;;;13.90;4.77;;;6.30;99.90;;;;;;4907077;29;20217;-92
2021/03/12 08:35:35;;;;;;;11.50;4.60;;;6.40;99.90;;;;;;4923283;29;20186;-91
2021/03/12 08:38:22;;;;;;;8.73;4.27;;;6.40;99.90;;;;;;4922780;29;20213;-93
2021/03/12 08:41:01;;;;;;;9.53;4.20;;;6.50;99.90;;;;;;4922263;29;20178;-93
2021/03/12 08:43:28;;;;;;;9.40;4.60;;;6.50;99.90;;;;;;4923178;29;20189;-93
2021/03/12 08:45:56;;;;;;;8.10;3.90;;;6.50;99.90;;;;;;4923087;29;20186;-90
2021/03/12 08:48:29;;;;;;;9.43;4.10;;;6.50;99.90;;;;;;4922727;29;20284;-90
2021/03/12 08:50:57;;;;;;;7.80;4.37;;;6.60;99.90;;;;;;4922889;29;20197;-90
2021/03/12 08:53:26;;;;;;;9.17;4.40;;;6.70;99.90;;;;;;4939747;29;20205;-89
2021/03/12 08:55:54;;;;;;;9.80;4.53;;;6.70;99.90;;;;;;4922690;29;20218;-90
2021/03/12 08:58:21;;;;;;;12.73;4.90;;;6.60;99.90;;;;;;4939168;29;20568;-89
2021/03/12 09:00:52;;;;;;;10.90;4.40;;;6.60;99.90;;;;;;4939828;29;20189;-89
2021/03/12 09:03:27;;;;;;;11.40;4.50;;;6.60;99.90;;;;;;4922737;29;20206;-88
2021/03/12 09:05:54;;;;;;;13.90;4.90;;;6.60;99.90;;;;;;4920453;29;20178;-88
2021/03/12 09:08:27;;;;;;;12.03;4.93;;;6.60;99.90;;;;;;4939612;29;20185;-92
2021/03/12 09:10:54;;;;;;;14.93;5.23;;;6.60;99.90;;;;;;4922069;29;20529;-91
2021/03/12 09:13:26;;;;;;;11.03;4.83;;;6.60;99.90;;;;;;4922345;29;20280;-89
2021/03/12 09:15:52;;;;;;;11.40;4.20;;;6.70;99.90;;;;;;4922228;29;20230;-88
2021/03/12 09:18:26;;;;;;;9.10;4.23;;;6.70;99.90;;;;;;4921469;29;20519;-90
2021/03/12 09:21:00;;;;;;;11.63;5.37;;;6.70;99.90;;;;;;4922005;29;20181;-91
2021/03/12 09:23:39;;;;;;;13.23;5.17;;;6.80;99.90;;;;;;4938414;29;20197;-90
2021/03/12 09:26:07;;;;;;;11.97;3.97;;;6.90;99.90;;;;;;4922051;29;20186;-89
2021/03/12 09:28:34;;;;;;;8.10;3.93;;;6.80;99.90;;;;;;4920969;29;20257;-90
2021/03/12 09:31:00;;;;;;;9.33;3.80;;;6.90;99.90;;;;;;4922303;29;20188;-89
2021/03/12 09:33:32;;;;;;;6.87;3.57;;;6.90;99.90;;;;;;4920840;29;20186;-90
2021/03/12 09:36:01;;;;;;;8.67;4.00;;;6.80;99.90;;;;;;4921764;29;20273;-90
2021/03/12 09:38:38;;;;;;;5.90;3.20;;;6.90;99.90;;;;;;4922813;29;20198;-90
2021/03/12 09:41:25;;;;;;;9.47;3.30;;;6.90;99.90;;;;;;4901228;29;20234;-90
2021/03/12 09:44:20;;;;;;;11.43;3.70;;;7.00;99.90;;;;;;4902494;29;20210;-89
2021/03/12 09:46:51;;;;;;;6.30;3.10;;;7.10;99.90;;;;;;4890622;29;20246;-90
2021/03/12 09:49:23;;;;;;;11.07;3.80;;;7.20;99.90;;;;;;4902870;29;20221;-89
2021/03/12 09:51:56;;;;;;;13.43;3.67;;;7.30;99.90;;;;;;4902595;29;20193;-89
2021/03/12 09:54:29;;;;;;;9.73;3.87;;;7.30;99.90;;;;;;4902748;29;20563;-90
2021/03/12 09:56:57;;;;;;;7.67;3.13;;;7.10;99.90;;;;;;4913950;29;20361;-90
2021/03/12 09:59:27;;;;;;;7.13;3.17;;;7.10;99.90;;;;;;4921667;29;20240;-91
2021/03/12 10:02:00;;;;;;;8.53;3.37;;;7.10;99.90;;;;;;4938338;29;20936;-89
2021/03/12 10:04:28;;;;;;;7.47;3.60;;;7.10;99.90;;;;;;4921476;29;20189;-89
2021/03/12 10:07:05;;;;;;;10.43;4.10;;;7.10;99.90;;;;;;4917512;29;20626;-91
2021/03/12 10:09:32;;;;;;;8.63;4.00;;;7.30;99.90;;;;;;4902754;29;20563;-90
2021/03/12 10:12:00;;;;;;;7.47;4.20;;;7.40;99.90;;;;;;4905480;29;20268;-92
2021/03/12 10:14:26;;;;;;;9.70;5.00;;;7.50;99.90;;;;;;4920981;29;20182;-90
2021/03/12 10:17:21;;;;;;;13.83;5.90;;;7.60;99.90;;;;;;4937897;29;20209;-92
2021/03/12 10:19:53;;;;;;;10.53;4.80;;;7.80;99.90;;;;;;4929717;29;20241;-92
2021/03/12 10:22:32;;;;;;;8.07;5.00;;;7.90;99.90;;;;;;4921142;29;20174;-91
2021/03/12 10:25:23;;;;;;;12.73;5.43;;;7.90;99.90;;;;;;4925190;29;20208;-89
2021/03/12 10:27:58;;;;;;;12.93;5.10;;;7.90;99.90;;;;;;4913317;29;20201;-90
2021/03/12 10:30:29;;;;;;;10.07;4.93;;;7.90;99.90;;;;;;4938813;29;20181;-89
2021/03/12 10:32:56;;;;;;;8.40;4.33;;;7.80;99.90;;;;;;4921201;29;20281;-90
2021/03/12 10:35:24;;;;;;;9.40;4.03;;;7.90;99.90;;;;;;4916798;29;20182;-89
2021/03/12 10:37:53;;;;;;;9.77;4.00;;;8.00;99.90;;;;;;4911860;29;20245;-89
2021/03/12 10:40:20;;;;;;;8.80;3.93;;;8.10;99.90;;;;;;4928978;29;20621;-89
2021/03/12 10:42:47;;;;;;;9.23;3.10;;;8.20;99.90;;;;;;4913524;29;20230;-86
2021/03/12 10:45:24;;;;;;;8.40;3.33;;;8.30;99.90;;;;;;4911965;29;20186;-87
2021/03/12 10:48:01;;;;;;;6.73;3.10;;;8.30;99.90;;;;;;4909676;29;20194;-89
2021/03/12 10:50:27;;;;;;;8.67;3.40;;;8.50;99.90;;;;;;4916604;29;20609;-87
2021/03/12 10:53:25;;;;;;;7.97;3.00;;;8.40;99.90;;;;;;4928460;29;20261;-89
2021/03/12 10:56:00;;;;;;;7.10;3.00;;;8.40;99.90;;;;;;4879662;29;20185;-88
2021/03/12 10:58:32;;;;;;;8.80;2.60;;;8.20;99.90;;;;;;4935317;29;20184;-88
2021/03/12 11:01:07;;;;;;;7.87;2.77;;;8.10;99.90;;;;;;4918535;29;20186;-89
2021/03/12 11:03:33;;;;;;;7.03;3.17;;;7.90;99.90;;;;;;4920871;29;20272;-88
2021/03/12 11:05:59;;;;;;;8.97;3.40;;;8.10;99.90;;;;;;4920216;29;20182;-87
2021/03/12 11:08:27;;;;;;;8.23;3.00;;;8.20;99.90;;;;;;4919178;29;20663;-89
2021/03/12 11:10:53;;;;;;;8.30;2.60;;;8.40;99.90;;;;;;4936220;29;20229;-87
2021/03/12 11:13:18;;;;;;;6.80;2.50;;;8.40;99.90;;;;;;4926421;29;20186;-89
2021/03/12 11:15:45;;;;;;;4.47;2.30;;;8.40;99.90;;;;;;4923811;29;20193;-88
2021/03/12 11:18:10;;;;;;;6.67;2.60;;;8.50;99.90;;;;;;4908729;29;20186;-89
2021/03/12 11:20:36;;;;;;;7.97;2.50;;;8.60;99.90;;;;;;4935106;29;20170;-90
2021/03/12 11:23:02;;;;;;;6.17;2.43;;;8.90;99.90;;;;;;4937191;29;20551;-89
2021/03/12 11:25:28;;;;;;;9.60;2.33;;;8.90;99.90;;;;;;4937105;29;20738;-92
2021/03/12 11:27:53;;;;;;;7.10;2.53;;;8.90;99.90;;;;;;4919898;29;20281;-92
2021/03/12 11:30:20;;;;;;;4.43;2.03;;;9.20;99.90;;;;;;4922194;29;20193;-89
2021/03/12 11:32:47;;;;;;;7.03;2.20;;;9.20;99.90;;;;;;4941607;29;20302;-91
2021/03/12 11:35:16;;;;;;;5.87;2.10;;;9.40;99.90;;;;;;4943432;29;20220;-91
2021/03/12 11:37:43;;;;;;;9.03;2.27;;;9.50;99.90;;;;;;4943068;29;20209;-90
2021/03/12 11:40:11;;;;;;;5.73;2.00;;;9.60;99.90;;;;;;4960212;29;20166;-91
2021/03/12 11:42:38;;;;;;;11.30;2.67;;;9.50;99.90;;;;;;4929317;29;20261;-91
2021/03/12 11:45:06;;;;;;;8.43;1.93;;;9.20;99.90;;;;;;4904940;29;20186;-90
2021/03/12 11:47:32;;;;;;;7.77;2.10;;;9.20;99.90;;;;;;4905125;29;20617;-90
2021/03/12 11:49:58;;;;;;;8.07;2.10;;;9.20;99.90;;;;;;4926255;29;20728;-88
2021/03/12 11:52:26;;;;;;;9.40;2.17;;;9.30;99.90;;;;;;4923506;29;20190;-90
2021/03/12 11:54:56;;;;;;;5.67;1.83;;;9.30;99.90;;;;;;4923824;29;20186;-90
2021/03/12 11:57:22;;;;;;;5.97;1.70;;;9.10;99.90;;;;;;4936791;29;20213;-89
2021/03/12 11:59:48;;;;;;;6.87;2.40;;;8.80;99.90;;;;;;4940553;29;20182;-89
2021/03/12 12:02:15;;;;;;;7.80;2.07;;;8.70;99.90;;;;;;4940696;29;20631;-90
2021/03/12 12:04:45;;;;;;;7.37;2.10;;;8.70;99.90;;;;;;4923778;29;20209;-90
2021/03/12 12:07:15;;;;;;;10.33;2.30;;;8.90;99.90;;;;;;4940299;29;20177;-89
2021/03/12 12:09:42;;;;;;;8.43;1.83;;;9.10;99.90;;;;;;4904527;29;20689;-92
2021/03/12 12:12:09;;;;;;;5.40;1.93;;;9.20;99.90;;;;;;4904563;29;20528;-93
2021/03/12 12:14:36;;;;;;;10.07;2.23;;;9.20;99.90;;;;;;4904673;29;20185;-92
2021/03/12 12:17:02;;;;;;;7.10;1.70;;;9.40;99.90;;;;;;4921351;29;20230;-91
2021/03/12 12:19:28;;;;;;;11.37;1.97;;;9.30;99.90;;;;;;4904491;29;20374;-90
2021/03/12 12:21:53;;;;;;;9.37;1.73;;;9.30;99.90;;;;;;4920147;29;20186;-92
2021/03/12 12:24:19;;;;;;;7.57;1.90;;;9.30;99.60;;;;;;4920026;29;20183;-91
2021/03/12 12:26:45;;;;;;;5.03;1.60;;;9.30;99.40;;;;;;4921018;29;20189;-91
2021/03/12 12:29:11;;;;;;;4.77;1.70;;;9.40;99.90;;;;;;4904398;29;20179;-90
2021/03/12 12:31:37;;;;;;;11.70;2.47;;;9.40;99.90;;;;;;4904349;29;20517;-90
2021/03/12 12:34:03;;;;;;;8.23;2.20;;;9.40;99.80;;;;;;4907478;29;20185;-89
2021/03/12 12:36:30;;;;;;;4.37;1.37;;;9.30;99.90;;;;;;4919870;29;20217;-89
2021/03/12 12:38:57;;;;;;;7.70;1.73;;;9.40;99.90;;;;;;4913344;29;20613;-92
2021/03/12 12:41:23;;;;;;;8.43;1.87;;;9.20;99.10;;;;;;4913342;29;20219;-91
2021/03/12 12:43:49;;;;;;;8.07;1.73;;;9.20;99.90;;;;;;4922725;29;20221;-90
2021/03/12 12:46:16;;;;;;;12.50;1.93;;;9.30;99.70;;;;;;4939561;29;20178;-91
2021/03/12 12:48:42;;;;;;;9.60;1.67;;;9.20;99.90;;;;;;4939404;29;20223;-90
2021/03/12 12:51:08;;;;;;;5.93;1.63;;;9.10;99.80;;;;;;4924906;29;20534;-94
2021/03/12 12:53:34;;;;;;;6.63;1.50;;;9.20;99.50;;;;;;4938117;29;20224;-95
2021/03/12 12:56:01;;;;;;;7.43;1.83;;;9.10;99.20;;;;;;4941319;29;20181;-93
2021/03/12 12:58:27;;;;;;;5.27;1.53;;;9.10;99.60;;;;;;4939646;29;20196;-92
2021/03/12 13:00:54;;;;;;;7.20;2.10;;;9.20;99.80;;;;;;4922583;29;20189;-92
2021/03/12 13:03:20;;;;;;;5.20;1.40;;;9.20;99.90;;;;;;4922765;29;20642;-91
2021/03/12 13:05:46;;;;;;;7.20;1.57;;;9.10;99.90;;;;;;4922654;29;20605;-92